sensor_id;sensor_type;location;lat;lon;timestamp;pressure;altitude;pressure_sealevel;temperature;humidity
16451;BME280;12243;42.708;23.310;2023-05-22T00:00:16;94788.84;;;14.89;95.57
16451;BME280;12243;42.708;23.310;2023-05-22T00:02:43;94776.69;;;14.88;96.35
16451;BME280;12243;42.708;23.310;2023-05-22T00:05:11;94789.69;;;14.97;95.74
16451;BME280;12243;42.708;23.310;2023-05-22T00:07:38;94782.31;;;15.01;95.44
16451;BME280;12243;42.708;23.310;2023-05-22T00:10:06;94777.38;;;14.98;95.24
16451;BME280;12243;42.708;23.310;2023-05-22T00:12:35;94774.13;;;15.04;94.77
16451;BME280;12243;42.708;23.310;2023-05-22T00:15:02;94780.53;;;15.18;94.27
16451;BME280;12243;42.708;23.310;2023-05-22T00:17:29;94782.16;;;15.11;94.45
16451;BME280;12243;42.708;23.310;2023-05-22T00:19:56;94772.66;;;15.18;94.17
16451;BME280;12243;42.708;23.310;2023-05-22T00:22:28;94780.38;;;15.36;92.68
16451;BME280;12243;42.708;23.310;2023-05-22T00:24:56;94776.41;;;15.23;93.39
16451;BME280;12243;42.708;23.310;2023-05-22T00:27:23;94773.47;;;15.18;93.60
16451;BME280;12243;42.708;23.310;2023-05-22T00:29:51;94778.72;;;15.18;93.38
16451;BME280;12243;42.708;23.310;2023-05-22T00:32:18;94783.50;;;15.31;93.28
16451;BME280;12243;42.708;23.310;2023-05-22T00:34:44;94775.44;;;15.16;93.65
16451;BME280;12243;42.708;23.310;2023-05-22T00:37:12;94782.66;;;15.14;94.02
16451;BME280;12243;42.708;23.310;2023-05-22T00:39:38;94780.84;;;15.23;93.72
16451;BME280;12243;42.708;23.310;2023-05-22T00:42:05;94789.03;;;15.20;93.13
16451;BME280;12243;42.708;23.310;2023-05-22T00:44:32;94796.09;;;15.11;93.86
16451;BME280;12243;42.708;23.310;2023-05-22T00:47:01;94785.94;;;15.16;93.72
16451;BME280;12243;42.708;23.310;2023-05-22T00:49:28;94782.66;;;15.14;94.29
16451;BME280;12243;42.708;23.310;2023-05-22T00:51:55;94786.91;;;15.07;94.04
16451;BME280;12243;42.708;23.310;2023-05-22T00:54:22;94792.97;;;15.08;94.54
16451;BME280;12243;42.708;23.310;2023-05-22T00:56:50;94784.94;;;15.09;94.30
16451;BME280;12243;42.708;23.310;2023-05-22T00:59:17;94796.59;;;15.07;94.15
16451;BME280;12243;42.708;23.310;2023-05-22T01:01:44;94794.59;;;15.09;93.48
16451;BME280;12243;42.708;23.310;2023-05-22T01:04:13;94779.00;;;14.99;94.26
16451;BME280;12243;42.708;23.310;2023-05-22T01:06:40;94784.94;;;15.01;94.52
16451;BME280;12243;42.708;23.310;2023-05-22T01:09:07;94779.69;;;14.93;94.90
16451;BME280;12243;42.708;23.310;2023-05-22T01:11:39;94779.00;;;14.83;95.49
16451;BME280;12243;42.708;23.310;2023-05-22T01:14:14;94784.22;;;14.83;95.79
16451;BME280;12243;42.708;23.310;2023-05-22T01:16:51;94783.06;;;14.85;95.92
16451;BME280;12243;42.708;23.310;2023-05-22T01:19:41;94784.41;;;14.89;95.36
16451;BME280;12243;42.708;23.310;2023-05-22T01:22:22;94787.50;;;14.76;95.63
16451;BME280;12243;42.708;23.310;2023-05-22T01:25:14;94779.41;;;14.62;97.09
16451;BME280;12243;42.708;23.310;2023-05-22T01:27:59;94787.78;;;14.65;97.14
16451;BME280;12243;42.708;23.310;2023-05-22T01:30:46;94778.59;;;14.61;97.37
16451;BME280;12243;42.708;23.310;2023-05-22T01:33:15;94774.13;;;14.53;97.54
16451;BME280;12243;42.708;23.310;2023-05-22T01:35:47;94771.69;;;14.52;97.63
16451;BME280;12243;42.708;23.310;2023-05-22T01:38:17;94775.41;;;14.49;98.27
16451;BME280;12243;42.708;23.310;2023-05-22T01:40:45;94770.31;;;14.48;98.03
16451;BME280;12243;42.708;23.310;2023-05-22T01:43:13;94769.06;;;14.52;97.72
16451;BME280;12243;42.708;23.310;2023-05-22T01:45:40;94771.38;;;14.55;97.18
16451;BME280;12243;42.708;23.310;2023-05-22T01:48:08;94766.03;;;14.39;98.04
16451;BME280;12243;42.708;23.310;2023-05-22T01:50:38;94768.50;;;14.40;98.31
16451;BME280;12243;42.708;23.310;2023-05-22T01:53:10;94769.00;;;14.44;97.89
16451;BME280;12243;42.708;23.310;2023-05-22T01:55:43;94770.63;;;14.37;98.35
16451;BME280;12243;42.708;23.310;2023-05-22T01:58:20;94765.81;;;14.32;98.52
16451;BME280;12243;42.708;23.310;2023-05-22T02:00:51;94766.03;;;14.39;98.59
16451;BME280;12243;42.708;23.310;2023-05-22T02:03:27;94770.56;;;14.28;98.91
16451;BME280;12243;42.708;23.310;2023-05-22T02:05:58;94765.94;;;14.22;98.50
16451;BME280;12243;42.708;23.310;2023-05-22T02:08:25;94764.31;;;14.21;99.10
16451;BME280;12243;42.708;23.310;2023-05-22T02:10:54;94766.22;;;14.11;99.77
16451;BME280;12243;42.708;23.310;2023-05-22T02:13:22;94764.75;;;14.09;100.00
16451;BME280;12243;42.708;23.310;2023-05-22T02:15:50;94771.75;;;14.08;100.00
16451;BME280;12243;42.708;23.310;2023-05-22T02:18:17;94773.22;;;14.02;100.00
16451;BME280;12243;42.708;23.310;2023-05-22T02:20:46;94764.84;;;13.99;100.00
16451;BME280;12243;42.708;23.310;2023-05-22T02:23:13;94768.28;;;13.99;100.00
16451;BME280;12243;42.708;23.310;2023-05-22T02:25:40;94762.69;;;13.94;100.00
16451;BME280;12243;42.708;23.310;2023-05-22T02:28:06;94767.41;;;13.91;100.00
16451;BME280;12243;42.708;23.310;2023-05-22T02:30:33;94770.31;;;13.88;100.00
16451;BME280;12243;42.708;23.310;2023-05-22T02:33:01;94775.91;;;13.85;100.00
16451;BME280;12243;42.708;23.310;2023-05-22T02:35:30;94767.19;;;13.84;100.00
16451;BME280;12243;42.708;23.310;2023-05-22T02:37:58;94773.28;;;13.85;100.00
16451;BME280;12243;42.708;23.310;2023-05-22T02:40:26;94770.28;;;13.79;100.00
16451;BME280;12243;42.708;23.310;2023-05-22T02:42:53;94778.63;;;13.75;100.00
16451;BME280;12243;42.708;23.310;2023-05-22T02:45:20;94765.66;;;13.73;100.00
16451;BME280;12243;42.708;23.310;2023-05-22T02:47:47;94770.91;;;13.73;100.00
16451;BME280;12243;42.708;23.310;2023-05-22T02:50:14;94765.88;;;13.80;100.00
16451;BME280;12243;42.708;23.310;2023-05-22T02:52:41;94763.72;;;13.75;100.00
16451;BME280;12243;42.708;23.310;2023-05-22T02:55:11;94767.84;;;13.78;100.00
16451;BME280;12243;42.708;23.310;2023-05-22T02:57:38;94759.25;;;13.68;100.00
16451;BME280;12243;42.708;23.310;2023-05-22T03:00:06;94768.84;;;13.59;100.00
16451;BME280;12243;42.708;23.310;2023-05-22T03:02:36;94763.81;;;13.66;100.00
16451;BME280;12243;42.708;23.310;2023-05-22T03:05:03;94767.88;;;13.60;100.00
16451;BME280;12243;42.708;23.310;2023-05-22T03:07:30;94758.66;;;13.56;100.00
16451;BME280;12243;42.708;23.310;2023-05-22T03:09:59;94757.13;;;13.45;100.00
16451;BME280;12243;42.708;23.310;2023-05-22T03:12:28;94756.81;;;13.48;100.00
16451;BME280;12243;42.708;23.310;2023-05-22T03:14:54;94766.47;;;13.48;100.00
16451;BME280;12243;42.708;23.310;2023-05-22T03:17:21;94760.94;;;13.51;100.00
16451;BME280;12243;42.708;23.310;2023-05-22T03:19:49;94760.88;;;13.43;100.00
16451;BME280;12243;42.708;23.310;2023-05-22T03:22:16;94763.34;;;13.44;100.00
16451;BME280;12243;42.708;23.310;2023-05-22T03:24:43;94760.72;;;13.44;100.00
16451;BME280;12243;42.708;23.310;2023-05-22T03:27:13;94761.97;;;13.58;100.00
16451;BME280;12243;42.708;23.310;2023-05-22T03:29:43;94766.22;;;13.59;100.00
16451;BME280;12243;42.708;23.310;2023-05-22T03:32:10;94758.38;;;13.59;100.00
16451;BME280;12243;42.708;23.310;2023-05-22T03:34:37;94764.13;;;13.63;100.00
16451;BME280;12243;42.708;23.310;2023-05-22T03:37:08;94764.63;;;13.66;100.00
16451;BME280;12243;42.708;23.310;2023-05-22T03:39:35;94765.31;;;13.68;100.00
16451;BME280;12243;42.708;23.310;2023-05-22T03:42:17;94772.25;;;13.77;100.00
16451;BME280;12243;42.708;23.310;2023-05-22T03:44:46;94766.00;;;14.04;100.00
16451;BME280;12243;42.708;23.310;2023-05-22T03:47:13;94769.22;;;14.50;100.00
16451;BME280;12243;42.708;23.310;2023-05-22T03:49:40;94770.81;;;15.02;100.00
16451;BME280;12243;42.708;23.310;2023-05-22T03:52:08;94770.53;;;15.46;98.68
16451;BME280;12243;42.708;23.310;2023-05-22T03:54:36;94780.72;;;15.98;95.84
16451;BME280;12243;42.708;23.310;2023-05-22T03:57:04;94773.31;;;16.49;91.58
16451;BME280;12243;42.708;23.310;2023-05-22T03:59:31;94772.22;;;16.83;88.26
16451;BME280;12243;42.708;23.310;2023-05-22T04:01:59;94780.41;;;17.19;86.16
16451;BME280;12243;42.708;23.310;2023-05-22T04:04:26;94774.44;;;17.48;85.06
16451;BME280;12243;42.708;23.310;2023-05-22T04:06:53;94776.66;;;17.59;82.95
16451;BME280;12243;42.708;23.310;2023-05-22T04:09:25;94781.09;;;17.36;82.05
16451;BME280;12243;42.708;23.310;2023-05-22T04:11:52;94774.47;;;16.94;83.44
16451;BME280;12243;42.708;23.310;2023-05-22T04:14:21;94777.22;;;16.61;85.06
16451;BME280;12243;42.708;23.310;2023-05-22T04:16:47;94781.59;;;16.38;86.35
16451;BME280;12243;42.708;23.310;2023-05-22T04:19:16;94781.28;;;16.33;87.18
16451;BME280;12243;42.708;23.310;2023-05-22T04:21:43;94773.47;;;16.56;88.02
16451;BME280;12243;42.708;23.310;2023-05-22T04:24:10;94768.41;;;17.17;85.10
16451;BME280;12243;42.708;23.310;2023-05-22T04:26:37;94773.16;;;17.44;82.71
16451;BME280;12243;42.708;23.310;2023-05-22T04:29:04;94776.72;;;17.28;82.53
16451;BME280;12243;42.708;23.310;2023-05-22T04:31:35;94774.44;;;17.02;82.97
16451;BME280;12243;42.708;23.310;2023-05-22T04:34:02;94781.75;;;16.84;84.28
16451;BME280;12243;42.708;23.310;2023-05-22T04:36:31;94784.63;;;16.74;84.95
16451;BME280;12243;42.708;23.310;2023-05-22T04:38:58;94781.94;;;16.82;85.85
16451;BME280;12243;42.708;23.310;2023-05-22T04:41:29;94785.59;;;17.04;85.45
16451;BME280;12243;42.708;23.310;2023-05-22T04:43:56;94783.22;;;17.41;83.41
16451;BME280;12243;42.708;23.310;2023-05-22T04:46:24;94788.06;;;18.13;81.83
16451;BME280;12243;42.708;23.310;2023-05-22T04:48:53;94794.25;;;19.30;75.65
16451;BME280;12243;42.708;23.310;2023-05-22T04:51:21;94781.63;;;20.18;69.01
16451;BME280;12243;42.708;23.310;2023-05-22T04:53:50;94783.56;;;21.07;65.78
16451;BME280;12243;42.708;23.310;2023-05-22T04:56:16;94795.16;;;21.74;62.24
16451;BME280;12243;42.708;23.310;2023-05-22T04:58:43;94794.75;;;22.17;60.83
16451;BME280;12243;42.708;23.310;2023-05-22T05:01:13;94793.47;;;22.66;57.84
16451;BME280;12243;42.708;23.310;2023-05-22T05:03:41;94792.88;;;22.57;57.02
16451;BME280;12243;42.708;23.310;2023-05-22T05:06:09;94793.59;;;22.91;56.55
16451;BME280;12243;42.708;23.310;2023-05-22T05:08:37;94794.94;;;23.20;55.84
16451;BME280;12243;42.708;23.310;2023-05-22T05:11:05;94790.38;;;23.34;55.29
16451;BME280;12243;42.708;23.310;2023-05-22T05:13:32;94796.28;;;23.74;54.03
16451;BME280;12243;42.708;23.310;2023-05-22T05:15:59;94803.44;;;24.05;53.18
16451;BME280;12243;42.708;23.310;2023-05-22T05:18:26;94798.06;;;24.12;52.49
16451;BME280;12243;42.708;23.310;2023-05-22T05:20:53;94794.09;;;23.96;52.25
16451;BME280;12243;42.708;23.310;2023-05-22T05:23:20;94800.19;;;24.28;51.93
16451;BME280;12243;42.708;23.310;2023-05-22T05:25:47;94803.13;;;24.45;50.45
16451;BME280;12243;42.708;23.310;2023-05-22T05:28:16;94800.28;;;24.40;51.00
16451;BME280;12243;42.708;23.310;2023-05-22T05:30:44;94792.00;;;24.23;51.31
16451;BME280;12243;42.708;23.310;2023-05-22T05:33:31;94795.78;;;24.15;51.46
16451;BME280;12243;42.708;23.310;2023-05-22T05:36:06;94798.00;;;24.18;51.02
16451;BME280;12243;42.708;23.310;2023-05-22T05:38:34;94803.75;;;24.40;51.27
16451;BME280;12243;42.708;23.310;2023-05-22T05:41:01;94800.47;;;24.45;50.43
16451;BME280;12243;42.708;23.310;2023-05-22T05:43:30;94794.97;;;24.40;49.94
16451;BME280;12243;42.708;23.310;2023-05-22T05:46:02;94805.66;;;24.08;49.86
16451;BME280;12243;42.708;23.310;2023-05-22T05:48:31;94801.53;;;23.87;51.14
16451;BME280;12243;42.708;23.310;2023-05-22T05:50:58;94797.91;;;24.07;50.34
16451;BME280;12243;42.708;23.310;2023-05-22T05:53:27;94803.59;;;23.85;51.07
16451;BME280;12243;42.708;23.310;2023-05-22T05:55:57;94797.00;;;23.88;51.15
16451;BME280;12243;42.708;23.310;2023-05-22T05:58:26;94805.16;;;23.93;51.60
16451;BME280;12243;42.708;23.310;2023-05-22T06:01:07;94803.66;;;24.29;49.67
16451;BME280;12243;42.708;23.310;2023-05-22T06:03:36;94800.69;;;24.37;49.28
16451;BME280;12243;42.708;23.310;2023-05-22T06:06:12;94799.25;;;24.66;48.46
16451;BME280;12243;42.708;23.310;2023-05-22T06:09:06;94796.19;;;24.12;49.31
16451;BME280;12243;42.708;23.310;2023-05-22T06:11:45;94789.53;;;24.03;50.21
16451;BME280;12243;42.708;23.310;2023-05-22T06:14:12;94803.31;;;24.18;49.86
16451;BME280;12243;42.708;23.310;2023-05-22T06:16:42;94802.41;;;24.06;50.03
16451;BME280;12243;42.708;23.310;2023-05-22T06:19:10;94804.75;;;23.96;50.28
16451;BME280;12243;42.708;23.310;2023-05-22T06:21:37;94803.94;;;23.95;49.78
16451;BME280;12243;42.708;23.310;2023-05-22T06:24:05;94809.16;;;23.77;50.04
16451;BME280;12243;42.708;23.310;2023-05-22T06:26:33;94805.69;;;24.27;49.25
16451;BME280;12243;42.708;23.310;2023-05-22T06:29:00;94794.22;;;24.76;48.51
16451;BME280;12243;42.708;23.310;2023-05-22T06:31:30;94808.84;;;24.85;47.22
16451;BME280;12243;42.708;23.310;2023-05-22T06:34:01;94793.84;;;24.73;47.77
16451;BME280;12243;42.708;23.310;2023-05-22T06:36:28;94799.91;;;24.80;47.12
16451;BME280;12243;42.708;23.310;2023-05-22T06:38:57;94796.03;;;24.57;46.28
16451;BME280;12243;42.708;23.310;2023-05-22T06:41:56;94806.84;;;23.87;48.24
16451;BME280;12243;42.708;23.310;2023-05-22T06:44:23;94809.47;;;23.56;49.29
16451;BME280;12243;42.708;23.310;2023-05-22T06:46:53;94797.78;;;23.18;49.31
16451;BME280;12243;42.708;23.310;2023-05-22T06:49:24;94802.88;;;22.62;50.51
16451;BME280;12243;42.708;23.310;2023-05-22T06:51:53;94799.25;;;22.16;52.54
16451;BME280;12243;42.708;23.310;2023-05-22T06:54:20;94801.69;;;22.11;51.93
16451;BME280;12243;42.708;23.310;2023-05-22T06:56:52;94798.00;;;22.12;52.17
16451;BME280;12243;42.708;23.310;2023-05-22T06:59:19;94793.94;;;22.16;52.74
16451;BME280;12243;42.708;23.310;2023-05-22T07:02:04;94797.22;;;22.25;52.25
16451;BME280;12243;42.708;23.310;2023-05-22T07:04:55;94800.44;;;22.47;51.55
16451;BME280;12243;42.708;23.310;2023-05-22T07:07:30;94804.84;;;22.86;50.87
16451;BME280;12243;42.708;23.310;2023-05-22T07:09:57;94807.66;;;23.04;47.96
16451;BME280;12243;42.708;23.310;2023-05-22T07:12:24;94804.63;;;23.01;48.30
16451;BME280;12243;42.708;23.310;2023-05-22T07:14:53;94806.88;;;22.97;47.98
16451;BME280;12243;42.708;23.310;2023-05-22T07:17:23;94803.22;;;22.98;47.61
16451;BME280;12243;42.708;23.310;2023-05-22T07:19:50;94803.34;;;23.17;47.23
16451;BME280;12243;42.708;23.310;2023-05-22T07:22:18;94796.38;;;23.22;45.55
16451;BME280;12243;42.708;23.310;2023-05-22T07:24:46;94799.56;;;23.38;47.20
16451;BME280;12243;42.708;23.310;2023-05-22T07:27:15;94800.22;;;23.65;45.23
16451;BME280;12243;42.708;23.310;2023-05-22T07:29:45;94798.00;;;23.62;44.96
16451;BME280;12243;42.708;23.310;2023-05-22T07:32:12;94795.47;;;23.67;45.59
16451;BME280;12243;42.708;23.310;2023-05-22T07:34:40;94795.25;;;24.07;44.66
16451;BME280;12243;42.708;23.310;2023-05-22T07:37:09;94792.69;;;24.18;44.06
16451;BME280;12243;42.708;23.310;2023-05-22T07:39:39;94791.06;;;24.17;43.43
16451;BME280;12243;42.708;23.310;2023-05-22T07:42:06;94787.13;;;23.95;43.61
16451;BME280;12243;42.708;23.310;2023-05-22T07:44:40;94787.34;;;23.68;43.82
16451;BME280;12243;42.708;23.310;2023-05-22T07:47:07;94787.56;;;23.60;44.13
16451;BME280;12243;42.708;23.310;2023-05-22T07:49:34;94789.53;;;23.78;44.71
16451;BME280;12243;42.708;23.310;2023-05-22T07:52:01;94789.44;;;24.16;45.21
16451;BME280;12243;42.708;23.310;2023-05-22T07:54:28;94781.16;;;24.68;43.83
16451;BME280;12243;42.708;23.310;2023-05-22T07:56:56;94780.81;;;25.01;41.84
16451;BME280;12243;42.708;23.310;2023-05-22T07:59:30;94783.91;;;25.16;41.23
16451;BME280;12243;42.708;23.310;2023-05-22T08:01:58;94771.75;;;25.02;41.95
16451;BME280;12243;42.708;23.310;2023-05-22T08:04:25;94784.06;;;24.85;41.53
16451;BME280;12243;42.708;23.310;2023-05-22T08:06:54;94772.81;;;24.46;42.49
16451;BME280;12243;42.708;23.310;2023-05-22T08:09:21;94784.72;;;24.37;44.47
16451;BME280;12243;42.708;23.310;2023-05-22T08:11:49;94777.03;;;24.29;43.79
16451;BME280;12243;42.708;23.310;2023-05-22T08:14:17;94782.19;;;24.48;43.37
16451;BME280;12243;42.708;23.310;2023-05-22T08:16:44;94786.44;;;24.06;42.51
16451;BME280;12243;42.708;23.310;2023-05-22T08:19:11;94781.66;;;23.90;43.52
16451;BME280;12243;42.708;23.310;2023-05-22T08:21:38;94784.94;;;24.17;43.41
16451;BME280;12243;42.708;23.310;2023-05-22T08:24:06;94776.53;;;24.38;43.54
16451;BME280;12243;42.708;23.310;2023-05-22T08:26:32;94778.56;;;24.61;43.19
16451;BME280;12243;42.708;23.310;2023-05-22T08:28:59;94776.50;;;24.63;42.90
16451;BME280;12243;42.708;23.310;2023-05-22T08:31:28;94787.72;;;24.47;41.73
16451;BME280;12243;42.708;23.310;2023-05-22T08:33:55;94780.66;;;24.41;43.77
16451;BME280;12243;42.708;23.310;2023-05-22T08:36:26;94789.59;;;23.96;43.22
16451;BME280;12243;42.708;23.310;2023-05-22T08:38:54;94789.06;;;23.81;43.52
16451;BME280;12243;42.708;23.310;2023-05-22T08:41:21;94781.59;;;23.71;45.18
16451;BME280;12243;42.708;23.310;2023-05-22T08:43:48;94779.69;;;23.79;45.17
16451;BME280;12243;42.708;23.310;2023-05-22T08:46:15;94777.56;;;24.12;43.52
16451;BME280;12243;42.708;23.310;2023-05-22T08:48:46;94774.16;;;24.55;43.06
16451;BME280;12243;42.708;23.310;2023-05-22T08:51:18;94774.91;;;24.62;40.96
16451;BME280;12243;42.708;23.310;2023-05-22T08:53:45;94779.03;;;24.58;39.74
16451;BME280;12243;42.708;23.310;2023-05-22T08:56:13;94778.22;;;24.76;37.33
16451;BME280;12243;42.708;23.310;2023-05-22T08:58:41;94768.09;;;24.66;37.17
16451;BME280;12243;42.708;23.310;2023-05-22T09:01:08;94769.03;;;24.29;39.02
16451;BME280;12243;42.708;23.310;2023-05-22T09:03:35;94774.41;;;24.47;40.45
16451;BME280;12243;42.708;23.310;2023-05-22T09:06:04;94775.41;;;24.28;40.42
16451;BME280;12243;42.708;23.310;2023-05-22T09:08:36;94770.91;;;24.28;38.39
16451;BME280;12243;42.708;23.310;2023-05-22T09:11:03;94770.09;;;24.28;38.18
16451;BME280;12243;42.708;23.310;2023-05-22T09:13:30;94767.34;;;24.41;37.78
16451;BME280;12243;42.708;23.310;2023-05-22T09:15:58;94767.91;;;24.43;38.34
16451;BME280;12243;42.708;23.310;2023-05-22T09:18:27;94762.69;;;24.30;39.12
16451;BME280;12243;42.708;23.310;2023-05-22T09:20:56;94766.88;;;24.19;38.96
16451;BME280;12243;42.708;23.310;2023-05-22T09:23:26;94770.34;;;23.69;41.30
16451;BME280;12243;42.708;23.310;2023-05-22T09:25:54;94768.16;;;23.21;42.94
16451;BME280;12243;42.708;23.310;2023-05-22T09:28:21;94781.16;;;22.98;44.27
16451;BME280;12243;42.708;23.310;2023-05-22T09:30:49;94773.59;;;22.88;44.12
16451;BME280;12243;42.708;23.310;2023-05-22T09:33:16;94777.09;;;22.75;45.15
16451;BME280;12243;42.708;23.310;2023-05-22T09:35:45;94766.03;;;22.92;45.40
16451;BME280;12243;42.708;23.310;2023-05-22T09:38:13;94769.97;;;23.27;44.40
16451;BME280;12243;42.708;23.310;2023-05-22T09:40:41;94771.78;;;23.34;43.26
16451;BME280;12243;42.708;23.310;2023-05-22T09:43:08;94767.75;;;23.56;43.24
16451;BME280;12243;42.708;23.310;2023-05-22T09:45:36;94769.31;;;23.70;43.44
16451;BME280;12243;42.708;23.310;2023-05-22T09:48:04;94773.47;;;23.53;43.59
16451;BME280;12243;42.708;23.310;2023-05-22T09:50:31;94770.97;;;23.65;44.69
16451;BME280;12243;42.708;23.310;2023-05-22T09:53:00;94770.84;;;23.85;43.96
16451;BME280;12243;42.708;23.310;2023-05-22T09:55:28;94773.34;;;23.80;45.21
16451;BME280;12243;42.708;23.310;2023-05-22T09:57:57;94763.56;;;23.73;44.44
16451;BME280;12243;42.708;23.310;2023-05-22T10:00:29;94771.66;;;23.53;44.36
16451;BME280;12243;42.708;23.310;2023-05-22T10:03:04;94774.41;;;23.40;45.45
16451;BME280;12243;42.708;23.310;2023-05-22T10:05:34;94774.06;;;23.23;45.68
16451;BME280;12243;42.708;23.310;2023-05-22T10:08:08;94774.50;;;23.20;46.40
16451;BME280;12243;42.708;23.310;2023-05-22T10:10:37;94775.38;;;23.08;47.67
16451;BME280;12243;42.708;23.310;2023-05-22T10:13:06;94768.50;;;22.80;48.11
16451;BME280;12243;42.708;23.310;2023-05-22T10:15:33;94769.50;;;22.92;48.85
16451;BME280;12243;42.708;23.310;2023-05-22T10:18:01;94772.16;;;22.92;48.55
16451;BME280;12243;42.708;23.310;2023-05-22T10:20:28;94773.00;;;22.79;48.54
16451;BME280;12243;42.708;23.310;2023-05-22T10:22:55;94759.16;;;22.64;48.27
16451;BME280;12243;42.708;23.310;2023-05-22T10:25:22;94770.66;;;22.31;48.81
16451;BME280;12243;42.708;23.310;2023-05-22T10:27:51;94766.78;;;22.27;50.23
16451;BME280;12243;42.708;23.310;2023-05-22T10:30:31;94772.28;;;21.99;51.10
16451;BME280;12243;42.708;23.310;2023-05-22T10:33:24;94772.31;;;21.79;52.14
16451;BME280;12243;42.708;23.310;2023-05-22T10:36:00;94770.22;;;21.42;58.84
16451;BME280;12243;42.708;23.310;2023-05-22T10:38:58;94778.59;;;20.90;63.30
16451;BME280;12243;42.708;23.310;2023-05-22T10:41:29;94782.16;;;20.69;64.92
16451;BME280;12243;42.708;23.310;2023-05-22T10:43:56;94788.53;;;20.47;66.54
16451;BME280;12243;42.708;23.310;2023-05-22T10:46:24;94790.97;;;20.49;66.76
16451;BME280;12243;42.708;23.310;2023-05-22T10:48:53;94790.25;;;20.55;67.77
16451;BME280;12243;42.708;23.310;2023-05-22T10:51:21;94789.47;;;20.61;68.20
16451;BME280;12243;42.708;23.310;2023-05-22T10:53:50;94782.66;;;20.86;69.67
16451;BME280;12243;42.708;23.310;2023-05-22T10:56:18;94773.78;;;21.07;69.88
16451;BME280;12243;42.708;23.310;2023-05-22T11:10:26;94770.97;;;23.96;59.63
16451;BME280;12243;42.708;23.310;2023-05-22T11:13:13;94770.19;;;24.14;57.47
16451;BME280;12243;42.708;23.310;2023-05-22T11:15:44;94756.47;;;23.92;58.52
16451;BME280;12243;42.708;23.310;2023-05-22T11:18:11;94757.19;;;24.06;58.57
16451;BME280;12243;42.708;23.310;2023-05-22T11:20:38;94765.19;;;24.24;56.43
16451;BME280;12243;42.708;23.310;2023-05-22T11:23:06;94752.09;;;24.23;54.89
16451;BME280;12243;42.708;23.310;2023-05-22T11:25:36;94755.00;;;23.71;49.83
16451;BME280;12243;42.708;23.310;2023-05-22T11:28:05;94756.22;;;22.99;50.33
16451;BME280;12243;42.708;23.310;2023-05-22T11:30:33;94763.13;;;22.35;51.99
16451;BME280;12243;42.708;23.310;2023-05-22T11:33:01;94790.84;;;21.86;53.58
16451;BME280;12243;42.708;23.310;2023-05-22T11:35:28;94805.56;;;21.07;57.76
16451;BME280;12243;42.708;23.310;2023-05-22T11:37:55;94806.28;;;20.25;59.25
16451;BME280;12243;42.708;23.310;2023-05-22T11:40:25;94812.91;;;19.65;62.48
16451;BME280;12243;42.708;23.310;2023-05-22T11:42:55;94812.00;;;19.36;63.96
16451;BME280;12243;42.708;23.310;2023-05-22T11:45:22;94817.56;;;18.90;62.36
16451;BME280;12243;42.708;23.310;2023-05-22T11:47:49;94815.72;;;18.61;63.77
16451;BME280;12243;42.708;23.310;2023-05-22T11:50:16;94815.53;;;18.33;64.84
16451;BME280;12243;42.708;23.310;2023-05-22T11:52:43;94817.63;;;18.23;64.94
16451;BME280;12243;42.708;23.310;2023-05-22T11:55:11;94819.28;;;18.39;64.67
16451;BME280;12243;42.708;23.310;2023-05-22T11:57:38;94815.00;;;18.52;64.01
16451;BME280;12243;42.708;23.310;2023-05-22T12:00:08;94819.25;;;18.68;63.00
16451;BME280;12243;42.708;23.310;2023-05-22T12:02:38;94806.16;;;18.90;63.05
16451;BME280;12243;42.708;23.310;2023-05-22T12:05:09;94815.06;;;19.03;62.18
16451;BME280;12243;42.708;23.310;2023-05-22T12:07:36;94814.97;;;19.12;62.41
16451;BME280;12243;42.708;23.310;2023-05-22T12:10:04;94811.34;;;19.34;63.35
16451;BME280;12243;42.708;23.310;2023-05-22T12:12:32;94809.22;;;19.44;64.46
16451;BME280;12243;42.708;23.310;2023-05-22T12:14:59;94815.56;;;19.65;64.36
16451;BME280;12243;42.708;23.310;2023-05-22T12:17:28;94808.44;;;19.65;64.34
16451;BME280;12243;42.708;23.310;2023-05-22T12:19:56;94812.91;;;19.86;64.97
16451;BME280;12243;42.708;23.310;2023-05-22T12:22:23;94820.88;;;19.93;64.44
16451;BME280;12243;42.708;23.310;2023-05-22T12:24:54;94810.00;;;20.03;67.35
16451;BME280;12243;42.708;23.310;2023-05-22T12:27:20;94810.16;;;20.01;70.61
16451;BME280;12243;42.708;23.310;2023-05-22T12:29:47;94802.81;;;19.96;68.69
16451;BME280;12243;42.708;23.310;2023-05-22T12:32:14;94801.34;;;20.15;68.56
16451;BME280;12243;42.708;23.310;2023-05-22T12:34:44;94797.53;;;20.25;69.80
16451;BME280;12243;42.708;23.310;2023-05-22T12:37:19;94793.38;;;20.37;71.15
16451;BME280;12243;42.708;23.310;2023-05-22T12:39:56;94790.28;;;20.33;69.16
16451;BME280;12243;42.708;23.310;2023-05-22T12:42:24;94798.66;;;20.37;71.03
16451;BME280;12243;42.708;23.310;2023-05-22T12:44:52;94802.88;;;20.31;67.58
16451;BME280;12243;42.708;23.310;2023-05-22T12:47:21;94799.75;;;20.21;69.99
16451;BME280;12243;42.708;23.310;2023-05-22T12:49:49;94804.03;;;20.22;68.00
16451;BME280;12243;42.708;23.310;2023-05-22T12:52:17;94791.44;;;20.24;67.57
16451;BME280;12243;42.708;23.310;2023-05-22T12:54:43;94793.69;;;20.27;65.48
16451;BME280;12243;42.708;23.310;2023-05-22T12:57:10;94797.06;;;20.14;65.57
16451;BME280;12243;42.708;23.310;2023-05-22T12:59:37;94807.97;;;20.05;65.51
16451;BME280;12243;42.708;23.310;2023-05-22T13:02:04;94800.03;;;20.05;64.22
16451;BME280;12243;42.708;23.310;2023-05-22T13:04:31;94796.78;;;20.03;65.29
16451;BME280;12243;42.708;23.310;2023-05-22T13:07:00;94788.63;;;20.04;65.54
16451;BME280;12243;42.708;23.310;2023-05-22T13:09:26;94789.34;;;20.13;66.17